Portada
METAR-TAF:

METAR-TAF

Aeroports :

Woomera, Austràlia

latitud: 31-08S, longitud: 136-49E, altitud: 165 m

Observació

L'informe es va fer fa 39 minuts, a les 15:00 UTC
Vent 19 kt del Sud/Sud-Oest
Temperatura 12°C
Humitat 47%
Pressió 1013 hPa
Visibilitat 10 km o més

METAR: YPWR 131500Z AUTO 20019KT 9999 // NCD 12/01 Q1013

Hora: 02:09 (15:39 UTC)

Pronòstic

L'informe es va fer fa 4 hores i 52 minuts, a les 10:47 UTC
Pronòstic vàlid del 13 a les 12 UTC al 14 a les 06 UTC
Vent 17 kt del Sud/Sud-Oest
Visibilitat 10 km o més
sense núvols per sota de 1500 mi sense presència de cumulonimbus.
A partir de les 13 a les 2200 UTC
Vent 22 kt del Sud/Sud-Oest
Visibilitat 10 km o més
Núvols disperses a una alçada de 3000 ft

TAF: YPWR 131047Z 1312/1406 20017KT CAVOK FM132200 21022KT 9999 SCT030

Observacions i pronòstics meteorològics de més de 4000 aeroports (METAR i TAF).

Les estacions disponibles són els punts grocs i vermells al mapa.

Posi el ratolí al punt desitjat per veure el nom de l'estació.

Feu clic per veure les observacions i els pronòstics meteorològics.

Per canviar el mapa: feu clic els botons verds amb una creu de color negre per apropar; al botó verd amb un guió per allunyar la imatge; o en les fletxes verdes per a mapes adjacents.


METAR-TAF: